Time;durP1;ratioP1;P1;durP2;ratioP2;P2;SDS_P1;SDS_P2;PMS_P1;PMS_P2;Temp;Humidity;BMP_temperature;BMP_pressure;BME280_temperature;BME280_humidity;BME280_pressure;Samples;Min_cycle;Max_cycle;Signal;HPM_P1;HPM_P2
2022/03/27 00:01:07;;;;;;;16.27;13.50;;;8.70;1.00;;;;;;5115687;28;20452;-71
2022/03/27 00:03:34;;;;;;;16.67;13.93;;;8.70;1.00;;;;;;5115658;28;20448;-70
2022/03/27 00:06:01;;;;;;;15.23;12.83;;;8.70;1.00;;;;;;5115765;28;20521;-71
2022/03/27 00:08:28;;;;;;;18.83;15.00;;;8.60;1.00;;;;;;5115653;28;20456;-71
2022/03/27 00:13:40;;;;;;;18.17;15.00;;;8.60;1.00;;;;;;5116171;28;20466;-71
2022/03/27 00:16:09;;;;;;;21.80;15.57;;;8.60;1.00;;;;;;5116144;28;20522;-71
2022/03/27 00:18:36;;;;;;;18.83;14.20;;;8.60;1.00;;;;;;5115599;28;20491;-71
2022/03/27 00:21:03;;;;;;;27.23;19.83;;;8.60;1.00;;;;;;5115563;28;20511;-70
2022/03/27 00:23:30;;;;;;;19.67;13.70;;;8.50;1.00;;;;;;5115402;28;20452;-71
2022/03/27 00:25:56;;;;;;;15.77;12.70;;;8.50;1.00;;;;;;5114737;28;20848;-71
2022/03/27 00:28:25;;;;;;;16.73;14.80;;;8.50;1.00;;;;;;5115436;28;20780;-71
2022/03/27 00:30:52;;;;;;;16.83;13.90;;;8.50;1.00;;;;;;5115244;28;20456;-71
2022/03/27 00:33:20;;;;;;;17.10;13.10;;;8.50;1.00;;;;;;5115234;28;20476;-70
2022/03/27 00:35:46;;;;;;;16.30;12.80;;;8.50;1.00;;;;;;5115333;28;20452;-71
2022/03/27 00:38:13;;;;;;;17.87;12.93;;;8.40;1.00;;;;;;5115003;28;20556;-71
2022/03/27 00:40:40;;;;;;;14.33;12.60;;;8.40;1.00;;;;;;5114909;28;20777;-72
2022/03/27 00:43:07;;;;;;;19.60;13.53;;;8.40;1.00;;;;;;5115186;28;20564;-72
2022/03/27 00:45:34;;;;;;;14.27;12.73;;;8.30;1.00;;;;;;5115203;28;20492;-71
2022/03/27 00:48:01;;;;;;;17.97;13.90;;;8.30;1.00;;;;;;5114816;28;20456;-71
2022/03/27 00:50:30;;;;;;;16.73;14.10;;;8.30;1.00;;;;;;5114935;28;20452;-71
2022/03/27 00:52:57;;;;;;;19.57;14.80;;;8.30;1.00;;;;;;5114466;28;20966;-71
2022/03/27 00:55:24;;;;;;;18.10;14.20;;;8.30;1.00;;;;;;5114836;28;20474;-71
2022/03/27 00:57:51;;;;;;;19.33;15.83;;;8.30;1.00;;;;;;5114787;28;20513;-71
2022/03/27 01:00:42;;;;;;;21.60;14.97;;;8.30;1.00;;;;;;5114682;28;20456;-71
2022/03/27 01:03:11;;;;;;;14.63;12.57;;;8.20;1.00;;;;;;5114845;28;20491;-71
2022/03/27 01:05:39;;;;;;;17.00;13.50;;;8.20;1.00;;;;;;5114305;28;20456;-70
2022/03/27 01:08:08;;;;;;;28.10;20.20;;;8.20;1.00;;;;;;5114624;28;20456;-71
2022/03/27 01:10:34;;;;;;;17.47;14.03;;;8.10;1.00;;;;;;5114631;28;20463;-71
2022/03/27 01:13:05;;;;;;;20.17;14.93;;;8.10;1.00;;;;;;5114648;28;20472;-71
2022/03/27 01:15:35;;;;;;;17.57;14.27;;;8.10;1.00;;;;;;5114756;28;20480;-71
2022/03/27 01:18:03;;;;;;;16.87;14.37;;;8.10;1.00;;;;;;5114675;28;20448;-70
2022/03/27 01:20:34;;;;;;;16.23;14.00;;;8.10;1.00;;;;;;5114262;28;20514;-71
2022/03/27 01:23:01;;;;;;;17.03;14.37;;;8.10;1.00;;;;;;5114597;28;20433;-71
2022/03/27 01:25:28;;;;;;;16.27;14.10;;;8.00;1.00;;;;;;5114663;28;20544;-70
2022/03/27 01:27:55;;;;;;;15.87;14.20;;;8.00;1.00;;;;;;5114582;28;20467;-71
2022/03/27 01:30:22;;;;;;;17.20;14.47;;;8.00;1.00;;;;;;5114490;28;20467;-70
2022/03/27 01:32:51;;;;;;;18.83;14.33;;;8.00;1.00;;;;;;5114785;28;20467;-70
2022/03/27 01:35:18;;;;;;;17.97;14.07;;;7.90;1.00;;;;;;5115431;28;20980;-71
2022/03/27 01:37:46;;;;;;;17.00;15.10;;;7.90;1.00;;;;;;5118969;28;20551;-70
2022/03/27 01:40:13;;;;;;;20.93;15.47;;;7.90;1.00;;;;;;5118824;28;20484;-71
2022/03/27 01:42:41;;;;;;;16.73;14.10;;;7.90;1.00;;;;;;5118811;28;20456;-72
2022/03/27 01:45:09;;;;;;;18.50;15.37;;;7.90;1.00;;;;;;5118783;28;20463;-71
2022/03/27 01:47:36;;;;;;;22.00;15.10;;;7.90;1.00;;;;;;5118735;28;20463;-71
2022/03/27 01:50:04;;;;;;;18.07;13.80;;;7.90;1.00;;;;;;5118580;28;20452;-72
2022/03/27 01:52:31;;;;;;;16.97;14.83;;;7.90;1.00;;;;;;5118228;28;20540;-73
2022/03/27 01:54:59;;;;;;;17.53;14.03;;;7.80;1.00;;;;;;5118259;28;20480;-71
2022/03/27 01:57:26;;;;;;;16.40;14.00;;;7.80;1.00;;;;;;5118609;28;20465;-71
2022/03/27 01:59:53;;;;;;;20.50;15.60;;;7.80;1.00;;;;;;5118770;28;20459;-70
2022/03/27 02:02:23;;;;;;;18.53;15.60;;;7.80;1.00;;;;;;5118481;28;20463;-71
2022/03/27 02:04:50;;;;;;;17.80;14.50;;;7.80;1.00;;;;;;5118129;28;20772;-71
2022/03/27 02:07:17;;;;;;;18.53;15.37;;;7.80;1.00;;;;;;5118265;28;20496;-70
2022/03/27 02:09:44;;;;;;;18.23;16.30;;;7.70;1.00;;;;;;5118287;28;20539;-71
2022/03/27 02:12:12;;;;;;;17.83;15.60;;;7.70;1.00;;;;;;5119445;28;20460;-72
2022/03/27 02:14:39;;;;;;;22.60;15.50;;;7.70;1.00;;;;;;5120111;28;20483;-72
2022/03/27 02:17:07;;;;;;;22.90;16.07;;;7.70;1.00;;;;;;5121529;28;20964;-70
2022/03/27 02:19:35;;;;;;;17.47;15.57;;;7.70;1.00;;;;;;5119111;28;20518;-69
2022/03/27 02:22:04;;;;;;;20.07;17.13;;;7.60;1.00;;;;;;5118740;28;20483;-71
2022/03/27 02:24:31;;;;;;;21.37;17.17;;;7.60;1.00;;;;;;5118316;28;20804;-71
2022/03/27 02:26:58;;;;;;;18.93;15.47;;;7.50;1.00;;;;;;5117396;28;20448;-71
2022/03/27 02:29:26;;;;;;;18.30;16.10;;;7.50;1.00;;;;;;5117215;28;20933;-70
2022/03/27 02:31:54;;;;;;;21.53;17.83;;;7.50;1.00;;;;;;5117530;28;20459;-71
2022/03/27 02:34:20;;;;;;;19.57;17.57;;;7.50;1.00;;;;;;5117490;28;20476;-71
2022/03/27 02:36:47;;;;;;;21.83;17.40;;;7.50;1.00;;;;;;5117408;28;20463;-71
2022/03/27 02:39:14;;;;;;;21.77;17.13;;;7.50;1.00;;;;;;5118002;28;20818;-71
2022/03/27 02:41:41;;;;;;;24.27;17.93;;;7.50;1.00;;;;;;5117317;28;20460;-71
2022/03/27 02:44:09;;;;;;;25.37;18.73;;;7.50;1.00;;;;;;5117066;28;20910;-71
2022/03/27 02:46:37;;;;;;;23.53;17.40;;;7.50;1.00;;;;;;5117433;28;20453;-71
2022/03/27 02:49:04;;;;;;;21.73;17.60;;;7.40;1.00;;;;;;5116635;28;20551;-71
2022/03/27 02:51:30;;;;;;;22.30;18.70;;;7.40;1.00;;;;;;5117085;28;20467;-71
2022/03/27 02:53:57;;;;;;;21.90;18.90;;;7.40;1.00;;;;;;5117094;28;20500;-70
2022/03/27 02:56:24;;;;;;;23.33;19.97;;;7.30;1.00;;;;;;5116992;28;20530;-71
2022/03/27 02:58:50;;;;;;;23.90;20.57;;;7.30;1.00;;;;;;5117058;28;20460;-71
2022/03/27 03:01:17;;;;;;;26.37;19.90;;;7.30;1.00;;;;;;5116531;28;20922;-70
2022/03/27 03:03:45;;;;;;;25.70;19.50;;;7.30;1.00;;;;;;5116667;28;20879;-71
2022/03/27 03:06:12;;;;;;;25.83;19.73;;;7.30;1.00;;;;;;5116765;28;20460;-71
2022/03/27 03:08:39;;;;;;;23.47;19.87;;;7.20;1.00;;;;;;5116518;28;20467;-71
2022/03/27 03:11:06;;;;;;;24.77;20.80;;;7.20;1.00;;;;;;5116617;28;20456;-70
2022/03/27 03:13:33;;;;;;;25.03;21.40;;;7.20;1.00;;;;;;5116785;28;20572;-71
2022/03/27 03:16:04;;;;;;;28.40;21.80;;;7.20;1.00;;;;;;5116823;28;20921;-71
2022/03/27 03:18:33;;;;;;;26.00;20.83;;;7.10;1.00;;;;;;5116500;28;20464;-71
2022/03/27 03:21:02;;;;;;;26.20;21.70;;;7.10;1.00;;;;;;5117039;28;20790;-71
2022/03/27 03:23:32;;;;;;;23.87;20.80;;;7.10;1.00;;;;;;5116409;28;20452;-71
2022/03/27 03:26:00;;;;;;;27.50;21.60;;;7.10;1.00;;;;;;5116574;28;20473;-71
2022/03/27 03:28:27;;;;;;;25.70;21.30;;;7.10;1.00;;;;;;5116514;28;20456;-71
2022/03/27 03:30:54;;;;;;;30.67;22.57;;;7.00;1.00;;;;;;5116409;28;20486;-71
2022/03/27 03:33:22;;;;;;;26.30;21.63;;;7.00;1.00;;;;;;5116376;28;20460;-71
2022/03/27 03:35:49;;;;;;;24.60;21.30;;;7.00;1.00;;;;;;5116323;28;20758;-72
2022/03/27 03:38:17;;;;;;;27.73;22.00;;;7.00;1.00;;;;;;5116255;28;20521;-71
2022/03/27 03:40:44;;;;;;;32.00;23.60;;;6.90;1.00;;;;;;5116101;28;20479;-70
2022/03/27 03:43:11;;;;;;;29.40;23.67;;;7.00;1.00;;;;;;5116040;28;20452;-70
2022/03/27 03:45:38;;;;;;;34.67;25.80;;;6.90;1.00;;;;;;5116011;28;20445;-71
2022/03/27 03:48:05;;;;;;;28.90;24.43;;;6.90;1.00;;;;;;5115411;28;20499;-70
2022/03/27 03:50:33;;;;;;;27.80;23.50;;;6.90;1.00;;;;;;5115874;28;20937;-71
2022/03/27 03:53:00;;;;;;;29.70;24.20;;;6.90;1.00;;;;;;5115301;28;20877;-70
2022/03/27 03:55:29;;;;;;;26.27;22.70;;;6.90;1.00;;;;;;5115773;28;20569;-70
2022/03/27 03:57:56;;;;;;;27.17;23.23;;;6.90;1.00;;;;;;5115381;28;20488;-71
2022/03/27 04:00:23;;;;;;;26.27;21.03;;;6.90;1.00;;;;;;5114793;28;20759;-71
2022/03/27 04:02:50;;;;;;;27.37;21.00;;;6.80;1.00;;;;;;5115796;28;20457;-71
2022/03/27 04:05:17;;;;;;;25.37;21.53;;;6.80;1.00;;;;;;5115598;28;20828;-71
2022/03/27 04:07:45;;;;;;;24.63;19.60;;;6.80;17.80;;;;;;5115572;28;20457;-71
2022/03/27 04:10:13;;;;;;;27.97;22.43;;;6.80;22.60;;;;;;5115690;28;20468;-71
2022/03/27 04:12:41;;;;;;;32.80;25.60;;;6.80;17.70;;;;;;5115332;28;20509;-71
2022/03/27 04:15:08;;;;;;;27.00;23.30;;;6.80;5.50;;;;;;5115104;28;20480;-72
2022/03/27 04:17:42;;;;;;;29.13;22.70;;;6.80;1.00;;;;;;5115460;28;20457;-71
2022/03/27 04:20:10;;;;;;;30.97;22.87;;;6.70;1.00;;;;;;5115772;28;20506;-71
2022/03/27 04:22:37;;;;;;;29.57;23.97;;;6.70;8.50;;;;;;5115495;28;20541;-70
2022/03/27 04:25:05;;;;;;;30.77;25.80;;;6.70;11.80;;;;;;5115397;28;20540;-71
2022/03/27 04:27:31;;;;;;;29.20;23.00;;;6.80;14.80;;;;;;5115144;28;20452;-71
2022/03/27 04:30:00;;;;;;;26.77;22.20;;;6.70;1.00;;;;;;5115194;28;20457;-71
2022/03/27 04:32:26;;;;;;;30.30;23.20;;;6.70;1.00;;;;;;5114887;28;21040;-71
2022/03/27 04:34:53;;;;;;;34.50;24.23;;;6.70;1.00;;;;;;5115054;28;20976;-70
2022/03/27 04:37:20;;;;;;;30.20;23.30;;;6.70;1.00;;;;;;5115183;28;20585;-71
2022/03/27 04:39:49;;;;;;;30.57;23.80;;;6.70;1.00;;;;;;5114806;28;20539;-71
2022/03/27 04:42:15;;;;;;;26.20;21.60;;;6.70;1.00;;;;;;5114621;28;20456;-70
2022/03/27 04:44:42;;;;;;;23.77;20.57;;;6.70;1.00;;;;;;5115281;28;20537;-72
2022/03/27 04:47:10;;;;;;;24.40;21.00;;;6.70;1.00;;;;;;5115034;28;20593;-71
2022/03/27 04:49:37;;;;;;;28.60;21.37;;;6.60;1.00;;;;;;5114769;28;20463;-70
2022/03/27 04:52:05;;;;;;;26.67;20.77;;;6.60;1.00;;;;;;5114618;28;20495;-71
2022/03/27 04:54:32;;;;;;;25.50;20.33;;;6.50;1.00;;;;;;5114849;28;20509;-71
2022/03/27 04:56:59;;;;;;;24.60;20.10;;;6.50;9.90;;;;;;5115047;28;20467;-70
2022/03/27 04:59:26;;;;;;;25.83;18.57;;;6.50;35.60;;;;;;5114699;28;20627;-70
2022/03/27 05:01:53;;;;;;;24.57;21.07;;;6.50;30.80;;;;;;5114920;28;20488;-71
2022/03/27 05:04:21;;;;;;;27.40;19.87;;;6.50;43.60;;;;;;5114795;28;20452;-70
2022/03/27 05:06:47;;;;;;;25.13;20.07;;;6.50;57.10;;;;;;5115115;28;20805;-71
2022/03/27 05:09:14;;;;;;;24.07;21.27;;;6.50;72.70;;;;;;5115070;28;20825;-71
2022/03/27 05:11:41;;;;;;;23.23;19.70;;;6.60;66.80;;;;;;5117930;28;20468;-71
2022/03/27 05:14:08;;;;;;;26.63;21.33;;;6.60;69.80;;;;;;5119618;28;20509;-71
2022/03/27 05:16:34;;;;;;;29.70;24.73;;;6.60;85.00;;;;;;5118771;28;20456;-71
2022/03/27 05:19:01;;;;;;;28.27;23.77;;;6.70;85.80;;;;;;5119043;28;20456;-71
2022/03/27 05:21:29;;;;;;;27.67;22.70;;;6.70;54.50;;;;;;5118754;28;20487;-71
2022/03/27 05:23:56;;;;;;;28.17;24.33;;;6.70;55.00;;;;;;5118320;28;20452;-71
2022/03/27 05:26:22;;;;;;;23.20;20.50;;;6.80;46.30;;;;;;5118837;28;20471;-70
2022/03/27 05:28:49;;;;;;;31.10;21.97;;;6.80;32.20;;;;;;5119159;28;20460;-71
2022/03/27 05:31:16;;;;;;;30.00;25.47;;;6.80;29.60;;;;;;5118944;28;20452;-71
2022/03/27 05:33:43;;;;;;;26.60;22.67;;;6.90;10.70;;;;;;5119148;28;20453;-70
2022/03/27 05:36:12;;;;;;;30.73;23.30;;;6.90;1.00;;;;;;5118548;28;20480;-70
2022/03/27 05:38:41;;;;;;;24.97;21.40;;;6.90;1.00;;;;;;5119359;28;20798;-71
2022/03/27 05:41:09;;;;;;;24.53;19.90;;;6.90;1.00;;;;;;5118192;28;20929;-71
2022/03/27 05:43:36;;;;;;;28.63;24.27;;;7.00;1.00;;;;;;5118459;28;20499;-71
2022/03/27 05:46:03;;;;;;;27.43;24.23;;;7.00;1.00;;;;;;5118622;28;20922;-71
2022/03/27 05:48:30;;;;;;;29.83;25.47;;;7.00;1.00;;;;;;5118539;28;20467;-70
2022/03/27 05:50:58;;;;;;;28.00;24.17;;;7.10;1.00;;;;;;5118474;28;20460;-71
2022/03/27 05:53:24;;;;;;;30.20;24.40;;;7.10;3.70;;;;;;5117979;28;20484;-71
2022/03/27 05:55:53;;;;;;;30.80;24.23;;;7.10;1.00;;;;;;5118098;28;20487;-69
2022/03/27 05:58:20;;;;;;;30.00;25.20;;;7.10;1.00;;;;;;5117888;28;20487;-71
2022/03/27 06:00:46;;;;;;;33.83;24.87;;;7.10;1.00;;;;;;5118219;28;20463;-71
2022/03/27 06:03:13;;;;;;;34.10;24.80;;;7.20;1.00;;;;;;5118200;28;20464;-71
2022/03/27 06:05:40;;;;;;;31.27;24.90;;;7.20;1.00;;;;;;5117721;28;20460;-70
2022/03/27 06:08:06;;;;;;;29.67;24.20;;;7.20;1.00;;;;;;5117672;28;20448;-70
2022/03/27 06:10:35;;;;;;;29.97;25.53;;;7.20;1.00;;;;;;5118750;28;20533;-70
2022/03/27 06:13:04;;;;;;;30.70;26.23;;;7.30;1.00;;;;;;5117653;28;20462;-71
2022/03/27 06:15:32;;;;;;;30.53;26.87;;;7.30;1.00;;;;;;5118405;28;20870;-71
2022/03/27 06:17:59;;;;;;;31.07;26.37;;;7.30;1.00;;;;;;5117392;28;20459;-72
2022/03/27 06:20:31;;;;;;;29.57;26.37;;;7.40;53.20;;;;;;5117581;28;20922;-70
2022/03/27 06:22:58;;;;;;;32.43;28.40;;;7.50;99.90;;;;;;5116880;28;20441;-73
2022/03/27 06:25:28;;;;;;;31.60;28.20;;;7.50;99.90;;;;;;5118630;28;20448;-73
2022/03/27 06:27:56;;;;;;;32.93;26.43;;;7.50;99.90;;;;;;5122970;28;20460;-74
2022/03/27 06:30:27;;;;;;;31.10;26.43;;;7.50;99.90;;;;;;5123460;28;20517;-72
2022/03/27 06:32:54;;;;;;;35.13;26.90;;;7.50;99.90;;;;;;5119197;28;20820;-72
2022/03/27 06:35:22;;;;;;;31.93;28.13;;;7.50;99.90;;;;;;5117546;28;20480;-73
2022/03/27 06:37:50;;;;;;;30.67;24.80;;;7.50;99.90;;;;;;5117884;28;20530;-71
2022/03/27 06:40:17;;;;;;;30.37;27.03;;;7.60;99.90;;;;;;5117695;28;20456;-72
2022/03/27 06:42:46;;;;;;;30.37;25.57;;;7.60;99.90;;;;;;5117800;28;20459;-73
2022/03/27 06:45:14;;;;;;;30.60;27.30;;;7.70;99.90;;;;;;5117325;28;20448;-73
2022/03/27 06:47:44;;;;;;;32.50;26.90;;;7.80;99.90;;;;;;5117444;28;20452;-72
2022/03/27 06:50:12;;;;;;;114.03;72.27;;;7.90;99.90;;;;;;5117386;28;20908;-72
2022/03/27 06:52:39;;;;;;;129.03;77.70;;;7.90;99.90;;;;;;5117360;28;20521;-73
2022/03/27 06:55:08;;;;;;;33.50;28.30;;;8.00;99.90;;;;;;5117225;28;20487;-72
2022/03/27 06:57:35;;;;;;;29.37;26.37;;;8.00;99.90;;;;;;5118115;28;20457;-74
2022/03/27 07:03:04;;;;;;;38.93;26.23;;;8.10;99.90;;;;;;5117296;28;20447;-73
2022/03/27 07:05:32;;;;;;;27.70;24.53;;;8.20;99.90;;;;;;5117564;28;20433;-72
2022/03/27 07:07:59;;;;;;;31.70;25.50;;;8.30;99.90;;;;;;5117058;28;20456;-73
2022/03/27 07:10:26;;;;;;;27.67;23.73;;;8.30;99.90;;;;;;5117343;28;20456;-73
2022/03/27 07:12:56;;;;;;;29.10;23.00;;;8.40;99.90;;;;;;5116745;28;21003;-73
2022/03/27 07:15:24;;;;;;;26.20;22.93;;;8.50;99.90;;;;;;5117210;28;20512;-73
2022/03/27 07:17:53;;;;;;;25.90;21.00;;;8.60;99.90;;;;;;5116546;28;20556;-73
2022/03/27 07:20:24;;;;;;;27.57;22.40;;;8.70;99.90;;;;;;5116708;28;20452;-73
2022/03/27 07:22:52;;;;;;;26.70;22.50;;;8.80;99.90;;;;;;5116569;28;20436;-73
2022/03/27 07:25:19;;;;;;;26.87;22.27;;;8.90;99.90;;;;;;5116583;28;20488;-74
2022/03/27 07:27:49;;;;;;;24.57;21.97;;;9.00;99.90;;;;;;5116713;28;20452;-74
2022/03/27 07:30:16;;;;;;;26.70;21.23;;;9.00;99.90;;;;;;5116971;28;20453;-73
2022/03/27 07:32:44;;;;;;;24.57;20.30;;;9.10;99.90;;;;;;5116712;28;20453;-72
2022/03/27 07:35:15;;;;;;;22.10;18.67;;;9.10;99.90;;;;;;5116887;28;20516;-73
2022/03/27 07:37:43;;;;;;;27.03;17.77;;;9.20;99.90;;;;;;5116418;28;20502;-73
2022/03/27 07:40:12;;;;;;;22.73;17.10;;;9.30;99.90;;;;;;5116343;28;20510;-74
2022/03/27 07:42:40;;;;;;;21.37;16.73;;;9.30;99.90;;;;;;5116529;28;20456;-72
2022/03/27 07:45:09;;;;;;;21.10;16.60;;;9.40;99.90;;;;;;5116303;28;20559;-73
2022/03/27 07:47:35;;;;;;;15.20;13.60;;;9.50;99.90;;;;;;5116017;28;20453;-74
2022/03/27 07:50:05;;;;;;;20.67;14.67;;;9.50;99.90;;;;;;5115921;28;20448;-73
2022/03/27 07:52:33;;;;;;;16.67;13.40;;;9.60;99.90;;;;;;5115698;28;20488;-74
2022/03/27 07:55:00;;;;;;;19.07;14.70;;;9.60;99.90;;;;;;5115489;28;20555;-73
2022/03/27 07:57:28;;;;;;;17.90;15.40;;;9.70;99.90;;;;;;5115915;28;20452;-72
2022/03/27 07:59:55;;;;;;;17.40;15.17;;;9.70;99.90;;;;;;5115672;28;20467;-73
2022/03/27 08:02:21;;;;;;;17.03;15.23;;;9.70;99.90;;;;;;5115832;28;20463;-74
2022/03/27 08:04:48;;;;;;;18.30;15.00;;;9.80;99.90;;;;;;5115950;28;20549;-73
2022/03/27 08:07:15;;;;;;;18.67;14.80;;;9.80;99.90;;;;;;5116606;28;20452;-73
2022/03/27 08:09:43;;;;;;;17.13;14.70;;;9.90;99.90;;;;;;5115698;28;20934;-73
2022/03/27 08:12:11;;;;;;;16.50;14.30;;;10.00;99.90;;;;;;5115336;28;20460;-72
2022/03/27 08:14:39;;;;;;;15.53;13.93;;;10.10;99.90;;;;;;5115734;28;20512;-72
2022/03/27 08:17:07;;;;;;;15.07;13.57;;;10.20;99.90;;;;;;5115486;28;20825;-72
2022/03/27 08:19:34;;;;;;;15.40;13.43;;;10.30;99.90;;;;;;5115128;28;20915;-73
2022/03/27 08:22:04;;;;;;;17.90;14.03;;;10.30;99.90;;;;;;5115711;28;20460;-74
2022/03/27 08:24:33;;;;;;;14.90;13.30;;;10.40;99.90;;;;;;5116077;28;20820;-72
2022/03/27 08:27:02;;;;;;;16.40;12.80;;;10.40;99.90;;;;;;5115629;28;20453;-73
2022/03/27 08:29:30;;;;;;;15.27;12.87;;;10.50;99.90;;;;;;5115475;28;20922;-73
2022/03/27 08:32:00;;;;;;;14.43;12.90;;;10.50;99.90;;;;;;5119042;28;20460;-73
2022/03/27 08:34:28;;;;;;;17.80;13.90;;;10.60;99.90;;;;;;5118661;28;20440;-73
2022/03/27 08:36:56;;;;;;;15.40;13.13;;;10.70;99.90;;;;;;5119439;28;20575;-73
2022/03/27 08:39:23;;;;;;;14.03;12.53;;;10.80;99.90;;;;;;5118638;28;20483;-73
2022/03/27 08:41:54;;;;;;;13.10;11.80;;;10.90;99.90;;;;;;5121032;28;20914;-73
2022/03/27 08:44:24;;;;;;;13.77;11.80;;;10.90;99.90;;;;;;5117362;28;20440;-72
2022/03/27 08:46:52;;;;;;;15.93;12.63;;;11.00;99.90;;;;;;5115089;28;20468;-73
2022/03/27 08:49:39;;;;;;;18.23;13.83;;;11.00;99.90;;;;;;5115367;28;20456;-73
2022/03/27 08:52:11;;;;;;;13.13;11.73;;;11.00;99.90;;;;;;5116239;28;20476;-73
2022/03/27 08:54:42;;;;;;;12.73;11.37;;;11.10;99.90;;;;;;5115943;28;20522;-74
2022/03/27 08:57:22;;;;;;;14.83;11.70;;;11.20;99.90;;;;;;5115410;28;20498;-73
2022/03/27 08:59:53;;;;;;;24.30;17.33;;;11.20;99.90;;;;;;5115690;28;20440;-71
2022/03/27 09:02:22;;;;;;;13.30;11.60;;;11.30;99.90;;;;;;5115210;28;20567;-72
2022/03/27 09:04:51;;;;;;;17.20;11.20;;;11.40;99.90;;;;;;5115239;28;20452;-72
2022/03/27 09:07:18;;;;;;;17.43;12.30;;;11.50;99.90;;;;;;5114926;28;20771;-72
2022/03/27 09:09:45;;;;;;;13.13;11.40;;;11.40;99.90;;;;;;5115007;28;20464;-72
2022/03/27 09:12:12;;;;;;;15.17;12.93;;;11.40;99.90;;;;;;5114682;28;20464;-72
2022/03/27 09:14:41;;;;;;;16.77;12.67;;;11.50;99.90;;;;;;5115599;28;20452;-73
2022/03/27 09:17:09;;;;;;;19.03;13.40;;;11.60;99.90;;;;;;5114470;28;20488;-72
2022/03/27 09:19:39;;;;;;;14.50;12.00;;;11.60;99.90;;;;;;5115118;28;20459;-73
2022/03/27 09:22:14;;;;;;;17.30;12.63;;;11.70;99.90;;;;;;5114343;28;20938;-73
2022/03/27 09:24:41;;;;;;;23.00;15.13;;;11.80;99.90;;;;;;5114625;28;20428;-73
2022/03/27 09:27:08;;;;;;;15.87;14.17;;;11.90;99.90;;;;;;5115020;28;20466;-73
2022/03/27 09:29:59;;;;;;;20.97;18.90;;;12.00;99.90;;;;;;5115716;28;20467;-72
2022/03/27 09:32:29;;;;;;;19.20;15.70;;;12.10;99.90;;;;;;5114427;28;20909;-72
2022/03/27 09:35:03;;;;;;;17.40;14.93;;;12.10;99.90;;;;;;5114924;28;20457;-73
2022/03/27 09:37:31;;;;;;;13.40;11.13;;;12.10;99.90;;;;;;5114756;28;20476;-73
2022/03/27 09:39:58;;;;;;;11.37;9.00;;;12.20;99.90;;;;;;5115196;28;20456;-73
2022/03/27 09:42:25;;;;;;;9.60;8.57;;;12.30;99.90;;;;;;5115033;28;20452;-73
2022/03/27 09:45:11;;;;;;;9.57;8.60;;;12.40;99.90;;;;;;5115047;28;20456;-73
2022/03/27 09:47:39;;;;;;;11.30;9.60;;;12.50;99.90;;;;;;5114162;28;20493;-74
2022/03/27 09:50:06;;;;;;;10.73;9.63;;;12.60;99.90;;;;;;5114619;28;20867;-73
2022/03/27 09:52:34;;;;;;;12.07;9.07;;;12.60;99.90;;;;;;5114406;28;20476;-74
2022/03/27 09:55:03;;;;;;;11.30;9.50;;;12.70;99.90;;;;;;5114307;28;20844;-72
2022/03/27 09:57:32;;;;;;;12.43;9.50;;;12.70;99.90;;;;;;5115650;28;20468;-71
2022/03/27 10:00:00;;;;;;;10.97;9.13;;;12.70;99.90;;;;;;5119181;28;20452;-71
2022/03/27 10:02:28;;;;;;;10.97;9.87;;;12.80;99.90;;;;;;5122871;28;20781;-72
2022/03/27 10:04:58;;;;;;;10.33;8.80;;;12.80;99.90;;;;;;5121017;28;20546;-71
2022/03/27 10:07:26;;;;;;;10.63;9.53;;;12.90;99.90;;;;;;5118679;28;20451;-71
2022/03/27 10:09:53;;;;;;;10.00;8.27;;;12.90;99.90;;;;;;5118837;28;20452;-71
2022/03/27 10:12:26;;;;;;;9.20;7.70;;;12.90;99.90;;;;;;5118354;28;20467;-73
2022/03/27 10:14:57;;;;;;;9.03;7.57;;;13.00;99.90;;;;;;5118802;28;20867;-72
2022/03/27 10:17:27;;;;;;;7.73;6.93;;;13.00;99.90;;;;;;5117480;28;20974;-72
2022/03/27 10:19:58;;;;;;;8.80;8.00;;;13.10;1.00;;;;;;5118026;28;20467;-72
2022/03/27 10:22:28;;;;;;;7.93;7.20;;;13.20;1.00;;;;;;5117284;28;20440;-70
2022/03/27 10:24:57;;;;;;;8.50;7.60;;;13.20;1.00;;;;;;5117713;28;20464;-72
2022/03/27 10:27:24;;;;;;;7.70;6.93;;;13.20;1.00;;;;;;5117985;28;20846;-71
2022/03/27 10:29:52;;;;;;;8.40;7.20;;;13.20;1.00;;;;;;5117546;28;20464;-71
2022/03/27 10:32:20;;;;;;;11.40;7.70;;;13.20;1.00;;;;;;5117711;28;20468;-71
2022/03/27 10:34:55;;;;;;;8.50;7.13;;;13.30;1.00;;;;;;5117661;28;20463;-71
2022/03/27 10:37:30;;;;;;;5.90;5.10;;;13.40;1.00;;;;;;5120202;28;20467;-72
2022/03/27 10:40:03;;;;;;;8.47;7.30;;;13.40;99.90;;;;;;5121291;28;20766;-72
2022/03/27 10:42:38;;;;;;;12.30;7.40;;;13.40;1.00;;;;;;5120205;28;20548;-72
2022/03/27 10:45:09;;;;;;;7.47;6.60;;;13.50;1.00;;;;;;5117317;28;20447;-71
2022/03/27 10:47:36;;;;;;;6.63;6.03;;;13.60;99.90;;;;;;5117428;28;20445;-72
2022/03/27 10:50:30;;;;;;;6.93;6.27;;;13.70;99.90;;;;;;5116877;28;20780;-72
2022/03/27 10:53:11;;;;;;;6.03;5.40;;;13.80;99.90;;;;;;5048738;28;20485;-71
2022/03/27 10:55:42;;;;;;;7.10;6.40;;;13.90;99.90;;;;;;5096512;28;20465;-71
2022/03/27 10:58:38;;;;;;;7.90;6.47;;;13.90;99.90;;;;;;5096512;28;20733;-72
2022/03/27 11:01:08;;;;;;;6.83;6.20;;;13.90;99.90;;;;;;5096222;28;20448;-72
2022/03/27 11:04:05;;;;;;;7.03;6.37;;;14.00;99.90;;;;;;5096503;28;20511;-71
2022/03/27 11:06:34;;;;;;;7.53;6.07;;;14.20;99.90;;;;;;5079631;28;20473;-71
2022/03/27 11:09:03;;;;;;;7.27;5.60;;;14.20;99.90;;;;;;5096033;28;20449;-71
2022/03/27 11:11:57;;;;;;;7.73;6.40;;;14.20;99.90;;;;;;5096526;28;20460;-71
2022/03/27 11:14:51;;;;;;;5.80;5.30;;;14.20;99.90;;;;;;5096420;28;20464;-71
2022/03/27 11:17:29;;;;;;;6.97;6.00;;;14.20;99.90;;;;;;5096094;28;20546;-72
2022/03/27 11:19:56;;;;;;;5.60;4.70;;;14.30;99.90;;;;;;5096656;28;20485;-71
2022/03/27 11:22:51;;;;;;;5.10;4.60;;;14.30;93.60;;;;;;5096374;28;20453;-71
2022/03/27 11:25:45;;;;;;;6.67;6.03;;;14.30;97.90;;;;;;5049336;28;20457;-70
2022/03/27 11:28:13;;;;;;;8.60;6.27;;;14.40;98.10;;;;;;5097282;28;20637;-71
2022/03/27 11:30:56;;;;;;;7.30;6.40;;;14.50;90.90;;;;;;5095838;28;20449;-72
2022/03/27 11:33:25;;;;;;;7.53;6.50;;;14.60;90.20;;;;;;5095297;28;20461;-71
2022/03/27 11:36:23;;;;;;;6.53;5.83;;;14.90;66.40;;;;;;5095819;28;20456;-70
2022/03/27 11:39:02;;;;;;;9.10;6.37;;;15.00;45.60;;;;;;5096206;28;20453;-71
2022/03/27 11:41:34;;;;;;;7.60;5.67;;;15.40;18.00;;;;;;5095968;28;20528;-72
2022/03/27 11:47:20;;;;;;;7.20;6.50;;;16.70;1.00;;;;;;5095656;28;20766;-71
2022/03/27 11:49:48;;;;;;;6.60;5.93;;;17.30;1.00;;;;;;5097776;28;20438;-70
2022/03/27 11:52:18;;;;;;;7.50;5.43;;;17.60;1.00;;;;;;5102372;28;20484;-71
2022/03/27 11:54:47;;;;;;;6.90;5.40;;;17.80;1.00;;;;;;5115699;28;20452;-71
2022/03/27 11:57:16;;;;;;;5.30;4.80;;;17.90;1.00;;;;;;5115719;28;21068;-72
2022/03/27 11:59:48;;;;;;;6.03;5.07;;;18.10;1.00;;;;;;5115466;28;20460;-71
2022/03/27 12:02:16;;;;;;;4.73;4.23;;;18.50;1.00;;;;;;5115493;28;20456;-71
2022/03/27 12:04:54;;;;;;;4.70;4.30;;;19.10;1.00;;;;;;5115538;28;20463;-72
2022/03/27 12:07:22;;;;;;;5.03;4.00;;;19.90;1.00;;;;;;5115982;28;20456;-71
2022/03/27 12:09:57;;;;;;;5.70;5.20;;;20.80;1.00;;;;;;5115177;28;20649;-72
2022/03/27 12:12:27;;;;;;;4.60;4.20;;;21.30;1.00;;;;;;5115302;28;20831;-72
2022/03/27 12:14:54;;;;;;;4.93;4.07;;;22.20;1.00;;;;;;5115105;28;20967;-71
2022/03/27 12:17:22;;;;;;;3.70;3.17;;;22.90;1.00;;;;;;5114919;28;20853;-71
2022/03/27 12:20:00;;;;;;;5.13;3.70;;;23.20;1.00;;;;;;5114358;28;20482;-71
2022/03/27 12:22:34;;;;;;;4.83;3.23;;;23.40;1.00;;;;;;5115131;28;20452;-72
2022/03/27 12:25:02;;;;;;;4.17;3.80;;;23.40;1.00;;;;;;5115088;28;20462;-72
2022/03/27 12:30:14;;;;;;;4.80;4.20;;;23.30;1.00;;;;;;5114572;28;20428;-71
2022/03/27 12:32:41;;;;;;;5.30;4.37;;;23.00;1.00;;;;;;5115114;28;20456;-71
2022/03/27 12:35:08;;;;;;;4.47;3.83;;;23.30;1.00;;;;;;5115246;28;20463;-72
2022/03/27 12:37:45;;;;;;;4.60;4.20;;;23.60;1.00;;;;;;5114646;28;20992;-72
2022/03/27 12:40:12;;;;;;;4.60;4.13;;;24.10;1.00;;;;;;5114746;28;20783;-72
2022/03/27 12:42:43;;;;;;;5.20;3.43;;;24.30;1.00;;;;;;5114636;28;20480;-72
2022/03/27 12:45:13;;;;;;;3.87;3.37;;;24.40;1.00;;;;;;5114501;28;20548;-72
2022/03/27 12:47:42;;;;;;;3.90;3.23;;;24.60;1.00;;;;;;5114749;28;20448;-72
2022/03/27 12:50:11;;;;;;;4.30;3.90;;;24.40;1.00;;;;;;5114473;28;20543;-72
2022/03/27 12:52:52;;;;;;;4.77;3.70;;;24.20;1.00;;;;;;5113711;28;20490;-72
2022/03/27 12:55:19;;;;;;;3.50;3.20;;;24.10;1.00;;;;;;5115057;28;20448;-72
2022/03/27 12:57:52;;;;;;;7.93;4.67;;;23.50;1.00;;;;;;5114452;28;20480;-71
2022/03/27 13:00:21;;;;;;;4.60;3.20;;;23.60;1.00;;;;;;5114374;28;20447;-72
2022/03/27 13:02:48;;;;;;;3.07;2.77;;;23.30;1.00;;;;;;5114864;28;20521;-70
2022/03/27 13:05:17;;;;;;;3.37;3.07;;;23.20;1.00;;;;;;5114304;28;20453;-72